Terminal Aerodrome Forecast
Issued by NWS

Home | Current Version | Previous Version | Text Only | Print | Product List | Glossary On
Versions: 1 2 3 4 5 6 7 8 9 10 11 12 13 14 15 16 17 18 19 20 21
000
FTUS46 KMFR 092342
TAFRBG
TAF
KRBG 092342Z 1000/1024 18004KT 5SM -RA BR SCT025 OVC040
     FM100400 19003KT 3SM -RA BR BKN020 OVC035
     FM101000 00000KT 3SM -RA BKN007 OVC020
     FM101300 VRB03KT 2SM -SHRA BR BKN010 OVC025
     FM102000 21007KT P6SM SCT015 OVC030=

USA.gov is the U.S. government's official web portal to all federal, state and local government web resources and services.